createdAt,value
2022-11-29T00:00:15.361Z,-3.88
2022-11-29T00:03:02.949Z,-3.94
2022-11-29T00:05:30.418Z,-4.01
2022-11-29T00:07:57.764Z,-4.08
2022-11-29T00:10:25.100Z,-4.10
2022-11-29T00:12:52.631Z,-4.10
2022-11-29T00:15:20.061Z,-4.13
2022-11-29T00:17:47.716Z,-4.18
2022-11-29T00:20:15.161Z,-4.21
2022-11-29T00:22:42.532Z,-4.25
2022-11-29T00:25:09.930Z,-4.28
2022-11-29T00:27:37.363Z,-4.30
2022-11-29T00:30:04.982Z,-4.25
2022-11-29T00:32:32.445Z,-4.21
2022-11-29T00:35:01.266Z,-4.20
2022-11-29T00:37:30.420Z,-4.24
2022-11-29T00:39:57.786Z,-4.26
2022-11-29T00:42:25.157Z,-4.27
2022-11-29T00:44:52.894Z,-4.28
2022-11-29T00:47:20.264Z,-4.29
2022-11-29T00:49:47.817Z,-4.33
2022-11-29T00:52:15.491Z,-4.30
2022-11-29T00:54:43.265Z,-4.27
2022-11-29T00:57:10.859Z,-4.25
2022-11-29T00:59:38.229Z,-4.27
2022-11-29T01:02:05.671Z,-4.32
2022-11-29T01:04:33.172Z,-4.35
2022-11-29T01:07:00.571Z,-4.36
2022-11-29T01:09:27.928Z,-4.37
2022-11-29T01:11:55.528Z,-4.33
2022-11-29T01:14:22.868Z,-4.29
2022-11-29T01:16:50.475Z,-4.29
2022-11-29T01:19:17.883Z,-4.33
2022-11-29T01:21:45.576Z,-4.34
2022-11-29T01:24:13.122Z,-4.38
2022-11-29T01:29:43.639Z,-4.39
2022-11-29T01:32:11.025Z,-4.33
2022-11-29T01:34:38.410Z,-4.28
2022-11-29T01:37:06.077Z,-4.24
2022-11-29T01:39:33.773Z,-4.22
2022-11-29T01:42:01.342Z,-4.23
2022-11-29T01:44:28.917Z,-4.27
2022-11-29T01:46:56.366Z,-4.31
2022-11-29T01:49:23.806Z,-4.36
2022-11-29T01:51:51.276Z,-4.40
2022-11-29T01:54:18.716Z,-4.37
2022-11-29T01:56:49.218Z,-4.36
2022-11-29T01:59:19.367Z,-4.35
2022-11-29T02:01:47.182Z,-4.35
2022-11-29T02:04:14.598Z,-4.34
2022-11-29T02:06:42.119Z,-4.34
2022-11-29T02:09:09.467Z,-4.34
2022-11-29T02:11:36.808Z,-4.34
2022-11-29T02:14:04.350Z,-4.36
2022-11-29T02:16:31.808Z,-4.35
2022-11-29T02:18:59.284Z,-4.32
2022-11-29T02:21:26.729Z,-4.34
2022-11-29T02:23:54.253Z,-4.36
2022-11-29T02:26:21.737Z,-4.40
2022-11-29T02:28:49.175Z,-4.43
2022-11-29T02:31:16.591Z,-4.48
2022-11-29T02:33:43.961Z,-4.53
2022-11-29T02:36:11.333Z,-4.58
2022-11-29T02:38:38.682Z,-4.57
2022-11-29T02:41:06.017Z,-4.54
2022-11-29T02:43:33.394Z,-4.52
2022-11-29T02:46:00.837Z,-4.56
2022-11-29T02:48:28.465Z,-4.61
2022-11-29T02:50:55.868Z,-4.67
2022-11-29T02:53:23.250Z,-4.74
2022-11-29T02:55:50.593Z,-4.81
2022-11-29T02:58:18.192Z,-4.88
2022-11-29T03:00:45.826Z,-4.92
2022-11-29T03:03:13.320Z,-4.93
2022-11-29T03:05:40.864Z,-4.94
2022-11-29T03:08:08.498Z,-4.92
2022-11-29T03:10:35.874Z,-4.96
2022-11-29T03:13:03.407Z,-5.01
2022-11-29T03:15:31.134Z,-5.07
2022-11-29T03:17:58.749Z,-5.11
2022-11-29T03:20:26.479Z,-5.17
2022-11-29T03:22:54.016Z,-5.23
2022-11-29T03:25:21.844Z,-5.27
2022-11-29T03:27:49.493Z,-5.25
2022-11-29T03:30:16.928Z,-5.24
2022-11-29T03:32:44.311Z,-5.23
2022-11-29T03:35:12.020Z,-5.24
2022-11-29T03:37:39.394Z,-5.26
2022-11-29T03:40:06.983Z,-5.30
2022-11-29T03:42:34.781Z,-5.34
2022-11-29T03:45:02.531Z,-5.36
2022-11-29T03:47:30.008Z,-5.39
2022-11-29T03:49:57.457Z,-5.37
2022-11-29T03:52:24.841Z,-5.35
2022-11-29T03:54:52.472Z,-5.35
2022-11-29T03:57:20.154Z,-5.37
2022-11-29T03:59:47.875Z,-5.38
2022-11-29T04:02:15.368Z,-5.40
2022-11-29T04:04:43.584Z,-5.43
2022-11-29T04:07:11.393Z,-5.47
2022-11-29T04:09:38.838Z,-5.51
2022-11-29T04:12:06.278Z,-5.48
2022-11-29T04:14:34.024Z,-5.45
2022-11-29T04:17:01.514Z,-5.45
2022-11-29T04:19:28.912Z,-5.48
2022-11-29T04:21:56.348Z,-5.49
2022-11-29T04:24:23.805Z,-5.51
2022-11-29T04:26:51.153Z,-5.52
2022-11-29T04:29:18.814Z,-5.55
2022-11-29T04:31:46.321Z,-5.56
2022-11-29T04:34:13.758Z,-5.54
2022-11-29T04:36:41.172Z,-5.51
2022-11-29T04:39:08.831Z,-5.47
2022-11-29T04:41:36.365Z,-5.45
2022-11-29T04:44:04.129Z,-5.43
2022-11-29T04:46:31.614Z,-5.42
2022-11-29T04:48:59.156Z,-5.42
2022-11-29T04:51:26.638Z,-5.43
2022-11-29T04:53:54.027Z,-5.44
2022-11-29T04:56:21.627Z,-5.38
2022-11-29T04:58:49.033Z,-5.34
2022-11-29T05:01:16.552Z,-5.29
2022-11-29T05:03:46.653Z,-5.28
2022-11-29T05:06:14.271Z,-5.27
2022-11-29T05:08:41.911Z,-5.24
2022-11-29T05:11:09.602Z,-5.23
2022-11-29T05:13:37.278Z,-5.26
2022-11-29T05:16:04.713Z,-5.30
2022-11-29T05:18:32.310Z,-5.35
2022-11-29T05:21:00.229Z,-5.35
2022-11-29T05:23:27.592Z,-5.34
2022-11-29T05:25:55.119Z,-5.33
2022-11-29T05:28:22.633Z,-5.34
2022-11-29T05:30:50.089Z,-5.34
2022-11-29T05:33:17.540Z,-5.34
2022-11-29T05:35:44.927Z,-5.35
2022-11-29T05:38:12.419Z,-5.36
2022-11-29T05:40:39.837Z,-5.32
2022-11-29T05:43:07.264Z,-5.28
2022-11-29T05:45:34.789Z,-5.28
2022-11-29T05:48:02.154Z,-5.31
2022-11-29T05:50:29.959Z,-5.31
2022-11-29T05:52:57.399Z,-5.32
2022-11-29T05:55:24.913Z,-5.33
2022-11-29T05:57:52.389Z,-5.36
2022-11-29T06:00:20.019Z,-5.38
2022-11-29T06:02:47.508Z,-5.36
2022-11-29T06:05:15.050Z,-5.35
2022-11-29T06:07:42.520Z,-5.35
2022-11-29T06:10:10.027Z,-5.38
2022-11-29T06:12:37.531Z,-5.41
2022-11-29T06:15:04.945Z,-5.44
2022-11-29T06:17:38.565Z,-5.47
2022-11-29T06:20:06.770Z,-5.52
2022-11-29T06:22:34.356Z,-5.57
2022-11-29T06:25:01.753Z,-5.58
2022-11-29T06:27:29.302Z,-5.59
2022-11-29T06:29:56.811Z,-5.59
2022-11-29T06:32:24.173Z,-5.54
2022-11-29T06:34:51.673Z,-5.50
2022-11-29T06:37:19.118Z,-5.43
2022-11-29T06:39:46.589Z,-5.35
2022-11-29T06:42:14.085Z,-5.26
2022-11-29T06:44:41.600Z,-5.13
2022-11-29T06:47:08.989Z,-5.00
2022-11-29T06:49:36.441Z,-4.87
2022-11-29T06:52:03.818Z,-4.79
2022-11-29T06:54:31.176Z,-4.72
2022-11-29T06:56:58.728Z,-4.65
2022-11-29T06:59:26.085Z,-4.59
2022-11-29T07:01:53.511Z,-4.51
2022-11-29T07:04:21.039Z,-4.40
2022-11-29T07:06:48.410Z,-4.30
2022-11-29T07:09:16.046Z,-4.24
2022-11-29T07:11:43.576Z,-4.18
2022-11-29T07:14:11.190Z,-4.13
2022-11-29T07:16:38.660Z,-4.08
2022-11-29T07:19:06.236Z,-4.02
2022-11-29T07:21:33.886Z,-3.97
2022-11-29T07:24:01.245Z,-3.88
2022-11-29T07:26:28.893Z,-3.80
2022-11-29T07:28:56.423Z,-3.72
2022-11-29T07:31:23.873Z,-3.68
2022-11-29T07:33:51.546Z,-3.63
2022-11-29T07:36:19.030Z,-3.59
2022-11-29T07:38:46.488Z,-3.54
2022-11-29T07:41:13.985Z,-3.47
2022-11-29T07:43:41.408Z,-3.37
2022-11-29T07:46:08.872Z,-3.27
2022-11-29T07:48:36.255Z,-3.17
2022-11-29T07:51:03.611Z,-3.09
2022-11-29T07:53:30.987Z,-3.03
2022-11-29T07:55:58.505Z,-2.97
2022-11-29T07:58:26.070Z,-2.93
2022-11-29T08:00:53.713Z,-2.91
2022-11-29T08:03:21.599Z,-2.87
2022-11-29T08:05:49.416Z,-2.76
2022-11-29T08:08:17.219Z,-2.65
2022-11-29T08:10:44.626Z,-2.58
2022-11-29T08:13:12.044Z,-2.52
2022-11-29T08:15:39.628Z,-2.48
2022-11-29T08:18:07.272Z,-2.44
2022-11-29T08:20:34.616Z,-2.41
2022-11-29T08:23:02.292Z,-2.40
2022-11-29T08:25:29.681Z,-2.37
2022-11-29T08:27:57.073Z,-2.28
2022-11-29T08:30:24.535Z,-2.17
2022-11-29T08:32:52.072Z,-2.09
2022-11-29T08:35:19.410Z,-2.02
2022-11-29T08:37:46.795Z,-1.98
2022-11-29T08:40:14.921Z,-1.90
2022-11-29T08:42:42.531Z,-1.83
2022-11-29T08:45:09.943Z,-1.73
2022-11-29T08:47:37.337Z,-1.67
2022-11-29T08:50:04.908Z,-1.62
2022-11-29T08:52:32.474Z,-1.57
2022-11-29T08:55:03.194Z,-1.53
2022-11-29T08:57:39.890Z,-1.47
2022-11-29T09:00:08.045Z,-1.36
2022-11-29T09:02:35.507Z,-1.26
2022-11-29T09:05:03.040Z,-1.22
2022-11-29T09:07:30.469Z,-1.19
2022-11-29T09:09:58.210Z,-1.16
2022-11-29T09:12:25.575Z,-1.12
2022-11-29T09:14:53.005Z,-1.07
2022-11-29T09:17:20.422Z,-1.02
2022-11-29T09:19:47.812Z,-0.95
2022-11-29T09:22:15.221Z,-0.88
2022-11-29T09:24:42.827Z,-0.82
2022-11-29T09:27:10.672Z,-0.75
2022-11-29T09:29:38.164Z,-0.72
2022-11-29T09:32:05.629Z,-0.68
2022-11-29T09:34:33.044Z,-0.62
2022-11-29T09:37:00.400Z,-0.52
2022-11-29T09:39:27.840Z,-0.43
2022-11-29T09:41:55.304Z,-0.37
2022-11-29T09:44:22.723Z,-0.29
2022-11-29T09:46:52.254Z,-0.22
2022-11-29T09:49:23.186Z,-0.17
2022-11-29T09:51:50.691Z,-0.12
2022-11-29T09:54:18.158Z,-0.10
2022-11-29T09:56:45.899Z,-0.01
2022-11-29T09:59:13.266Z,0.09
2022-11-29T10:01:40.668Z,0.16
2022-11-29T10:04:08.315Z,0.23
2022-11-29T10:06:35.665Z,0.29
2022-11-29T10:09:03.365Z,0.37
2022-11-29T10:11:30.856Z,0.44
2022-11-29T10:13:58.386Z,0.53
2022-11-29T10:16:26.184Z,0.59
2022-11-29T10:18:53.633Z,0.62
2022-11-29T10:21:21.224Z,0.65
2022-11-29T10:23:48.578Z,0.69
2022-11-29T10:26:15.975Z,0.74
2022-11-29T10:28:43.340Z,0.74
2022-11-29T10:31:10.813Z,0.79
2022-11-29T10:33:38.252Z,0.88
2022-11-29T10:36:06.222Z,0.94
2022-11-29T10:38:34.611Z,0.98
2022-11-29T10:41:02.070Z,1.04
2022-11-29T10:43:29.464Z,1.11
2022-11-29T10:45:56.876Z,1.17
2022-11-29T10:48:24.324Z,1.23
2022-11-29T10:50:51.834Z,1.32
2022-11-29T10:53:19.493Z,1.42
2022-11-29T10:55:46.905Z,1.50
2022-11-29T10:58:14.287Z,1.56
2022-11-29T11:00:41.673Z,1.62
2022-11-29T11:03:09.008Z,1.65
2022-11-29T11:05:36.473Z,1.68
2022-11-29T11:08:03.918Z,1.77
2022-11-29T11:10:31.745Z,1.86
2022-11-29T11:12:59.389Z,1.95
2022-11-29T11:15:26.990Z,2.00
2022-11-29T11:17:54.509Z,2.07
2022-11-29T11:20:21.919Z,2.11
2022-11-29T11:22:49.507Z,2.18
2022-11-29T11:25:16.906Z,2.32
2022-11-29T11:27:44.328Z,2.44
2022-11-29T11:30:11.876Z,2.51
2022-11-29T11:32:39.466Z,2.57
2022-11-29T11:35:06.973Z,2.61
2022-11-29T11:37:34.338Z,2.65
2022-11-29T11:40:01.878Z,2.65
2022-11-29T11:42:29.294Z,2.66
2022-11-29T11:44:56.709Z,2.63
2022-11-29T11:47:24.058Z,2.66
2022-11-29T11:49:51.502Z,2.70
2022-11-29T11:52:18.899Z,2.71
2022-11-29T11:54:46.644Z,2.70
2022-11-29T11:57:14.246Z,2.71
2022-11-29T11:59:41.792Z,2.75
2022-11-29T12:02:09.254Z,2.76
2022-11-29T12:04:36.700Z,2.76
2022-11-29T12:07:04.300Z,2.79
2022-11-29T12:09:32.098Z,2.82
2022-11-29T12:11:59.624Z,2.85
2022-11-29T12:14:27.230Z,2.84
2022-11-29T12:16:54.804Z,2.82
2022-11-29T12:19:22.476Z,2.79
2022-11-29T12:21:49.917Z,2.79
2022-11-29T12:24:17.484Z,2.81
2022-11-29T12:27:00.669Z,2.86
2022-11-29T12:29:28.268Z,3.01
2022-11-29T12:31:55.750Z,3.10
2022-11-29T12:34:23.222Z,3.14
2022-11-29T12:36:50.835Z,3.16
2022-11-29T12:39:18.343Z,3.18
2022-11-29T12:41:50.945Z,3.18
2022-11-29T12:44:21.219Z,3.21
2022-11-29T12:46:48.730Z,3.27
2022-11-29T12:49:16.555Z,3.30
2022-11-29T12:51:44.010Z,3.38
2022-11-29T12:54:11.705Z,3.46
2022-11-29T12:56:39.387Z,3.47
2022-11-29T12:59:06.918Z,3.47
2022-11-29T13:01:34.724Z,3.49
2022-11-29T13:04:02.418Z,3.55
2022-11-29T13:06:29.801Z,3.66
2022-11-29T13:08:57.297Z,4.56
2022-11-29T13:11:24.634Z,6.28
2022-11-29T13:13:52.500Z,7.82
2022-11-29T13:16:23.945Z,8.98
2022-11-29T13:18:54.001Z,9.93
2022-11-29T13:21:21.682Z,10.74
2022-11-29T13:26:36.735Z,12.27
2022-11-29T13:29:04.183Z,12.69
2022-11-29T13:31:32.042Z,12.88
2022-11-29T13:33:59.790Z,12.53
2022-11-29T13:36:27.166Z,12.18
2022-11-29T13:38:54.557Z,11.75
2022-11-29T13:41:21.925Z,11.29
2022-11-29T13:43:49.490Z,10.90
2022-11-29T13:46:17.201Z,10.54
2022-11-29T13:48:44.943Z,10.42
2022-11-29T13:51:12.648Z,10.48
2022-11-29T13:53:43.901Z,10.38
2022-11-29T13:56:14.480Z,10.07
2022-11-29T13:58:41.923Z,9.57
2022-11-29T14:01:09.381Z,8.95
2022-11-29T14:03:36.886Z,8.29
2022-11-29T14:06:04.324Z,7.68
2022-11-29T14:08:48.077Z,7.07
2022-11-29T14:11:19.195Z,6.43
2022-11-29T14:13:47.245Z,5.87
2022-11-29T14:16:14.923Z,5.27
2022-11-29T14:18:42.476Z,4.70
2022-11-29T14:21:09.968Z,4.18
2022-11-29T14:23:37.353Z,3.71
2022-11-29T14:26:04.748Z,3.28
2022-11-29T14:28:32.626Z,2.90
2022-11-29T14:31:00.294Z,2.58
2022-11-29T14:33:27.979Z,2.32
2022-11-29T14:35:55.369Z,2.10
2022-11-29T14:38:27.720Z,1.87
2022-11-29T14:40:58.482Z,1.59
2022-11-29T14:43:25.875Z,1.37
2022-11-29T14:45:53.335Z,1.16
2022-11-29T14:48:20.718Z,0.94
2022-11-29T14:50:48.354Z,0.74
2022-11-29T14:53:15.836Z,0.54
2022-11-29T14:55:43.153Z,0.33
2022-11-29T14:58:10.695Z,0.19
2022-11-29T15:00:38.073Z,0.06
2022-11-29T15:03:05.507Z,-0.07
2022-11-29T15:05:33.009Z,-0.20
2022-11-29T15:08:00.511Z,-0.33
2022-11-29T15:10:27.964Z,-0.45
2022-11-29T15:12:55.518Z,-0.60
2022-11-29T15:15:23.344Z,-0.71
2022-11-29T15:17:50.752Z,-0.80
2022-11-29T15:20:18.217Z,-0.90
2022-11-29T15:22:45.715Z,-1.00
2022-11-29T15:25:13.146Z,-1.10
2022-11-29T15:27:40.543Z,-1.17
2022-11-29T15:30:08.380Z,-1.20
2022-11-29T15:32:35.959Z,-1.24
2022-11-29T15:35:03.325Z,-1.28
2022-11-29T15:37:31.015Z,-1.35
2022-11-29T15:39:58.452Z,-1.43
2022-11-29T15:42:31.212Z,-1.49
2022-11-29T15:44:59.994Z,-1.56
2022-11-29T15:47:27.615Z,-1.59
2022-11-29T15:49:55.155Z,-1.62
2022-11-29T15:52:22.636Z,-1.65
2022-11-29T15:54:50.037Z,-1.70
2022-11-29T15:57:17.520Z,-1.74
2022-11-29T15:59:44.861Z,-1.80
2022-11-29T16:02:12.443Z,-1.86
2022-11-29T16:04:45.063Z,-1.86
2022-11-29T16:07:14.188Z,-1.89
2022-11-29T16:09:41.720Z,-1.91
2022-11-29T16:12:09.121Z,-1.96
2022-11-29T16:14:36.511Z,-2.00
2022-11-29T16:17:04.048Z,-2.05
2022-11-29T16:19:31.449Z,-2.12
2022-11-29T16:21:58.804Z,-2.19
2022-11-29T16:24:26.150Z,-2.21
2022-11-29T16:26:53.500Z,-2.23
2022-11-29T16:29:20.931Z,-2.25
2022-11-29T16:31:48.625Z,-2.29
2022-11-29T16:34:16.500Z,-2.34
2022-11-29T16:36:43.878Z,-2.39
2022-11-29T16:39:11.474Z,-2.44
2022-11-29T16:41:39.054Z,-2.43
2022-11-29T16:44:06.414Z,-2.43
2022-11-29T16:46:34.083Z,-2.44
2022-11-29T16:49:01.676Z,-2.45
2022-11-29T16:51:29.157Z,-2.48
2022-11-29T16:53:56.755Z,-2.50
2022-11-29T16:56:24.182Z,-2.51
2022-11-29T16:59:20.698Z,-2.48
2022-11-29T17:01:39.079Z,-2.44
2022-11-29T17:04:06.472Z,-2.41
2022-11-29T17:06:33.887Z,-2.40
2022-11-29T17:09:05.173Z,-2.38
2022-11-29T17:11:32.633Z,-2.36
2022-11-29T17:14:00.193Z,-2.29
2022-11-29T17:16:27.592Z,-2.21
2022-11-29T17:18:55.509Z,-2.16
2022-11-29T17:21:23.140Z,-2.14
2022-11-29T17:23:50.702Z,-2.13
2022-11-29T17:26:18.331Z,-2.12
2022-11-29T17:28:46.000Z,-2.08
2022-11-29T17:31:13.463Z,-1.99
2022-11-29T17:33:40.957Z,-1.94
2022-11-29T17:36:08.647Z,-1.88
2022-11-29T17:38:36.025Z,-1.83
2022-11-29T17:41:03.807Z,-1.82
2022-11-29T17:43:31.555Z,-1.82
2022-11-29T17:45:59.036Z,-1.84
2022-11-29T17:48:32.008Z,-1.82
2022-11-29T17:51:00.897Z,-1.79
2022-11-29T17:53:28.638Z,-1.78
2022-11-29T17:55:56.031Z,-1.78
2022-11-29T17:58:23.768Z,-1.79
2022-11-29T18:00:51.212Z,-1.81
2022-11-29T18:03:18.626Z,-1.84
2022-11-29T18:05:46.044Z,-1.79
2022-11-29T18:08:13.383Z,-1.75
2022-11-29T18:10:40.755Z,-1.71
2022-11-29T18:13:08.124Z,-1.69
2022-11-29T18:15:35.605Z,-1.68
2022-11-29T18:18:03.003Z,-1.66
2022-11-29T18:20:30.451Z,-1.65
2022-11-29T18:22:57.829Z,-1.60
2022-11-29T18:25:40.640Z,-1.55
2022-11-29T18:28:08.125Z,-1.49
2022-11-29T18:30:35.739Z,-1.49
2022-11-29T18:33:03.252Z,-1.50
2022-11-29T18:35:30.880Z,-1.52
2022-11-29T18:38:14.822Z,-1.49
2022-11-29T18:40:42.910Z,-1.44
2022-11-29T18:43:10.474Z,-1.42
2022-11-29T18:45:38.028Z,-1.42
2022-11-29T18:48:05.698Z,-1.41
2022-11-29T18:50:33.304Z,-1.39
2022-11-29T18:53:00.718Z,-1.39
2022-11-29T18:55:28.132Z,-1.32
2022-11-29T18:57:55.514Z,-1.28
2022-11-29T19:00:22.868Z,-1.30
2022-11-29T19:02:50.557Z,-1.31
2022-11-29T19:05:18.183Z,-1.33
2022-11-29T19:07:45.689Z,-1.35
2022-11-29T19:10:13.250Z,-1.32
2022-11-29T19:12:41.047Z,-1.26
2022-11-29T19:15:08.430Z,-1.22
2022-11-29T19:17:41.664Z,-1.19
2022-11-29T19:20:10.428Z,-1.18
2022-11-29T19:22:38.287Z,-1.19
2022-11-29T19:25:05.716Z,-1.21
2022-11-29T19:27:33.449Z,-1.17
2022-11-29T19:30:00.820Z,-1.12
2022-11-29T19:32:28.186Z,-1.07
2022-11-29T19:34:55.574Z,-1.05
2022-11-29T19:37:22.968Z,-1.05
2022-11-29T19:39:50.714Z,-1.08
2022-11-29T19:42:18.334Z,-1.05
2022-11-29T19:45:15.300Z,-1.02
2022-11-29T19:47:33.204Z,-1.03
2022-11-29T19:50:02.550Z,-1.04
2022-11-29T19:52:31.553Z,-1.06
2022-11-29T19:54:59.218Z,-1.06
2022-11-29T19:57:26.567Z,-1.01
2022-11-29T19:59:53.968Z,-0.95
2022-11-29T20:02:21.478Z,-0.94
2022-11-29T20:04:49.001Z,-0.96
2022-11-29T20:07:17.047Z,-0.97
2022-11-29T20:09:45.275Z,-0.96
2022-11-29T20:12:13.168Z,-0.92
2022-11-29T20:14:40.561Z,-0.88
2022-11-29T20:17:08.312Z,-0.88
2022-11-29T20:19:35.801Z,-0.88
2022-11-29T20:22:03.495Z,-0.89
2022-11-29T20:24:36.640Z,-0.88
2022-11-29T20:27:06.882Z,-0.84
2022-11-29T20:29:34.575Z,-0.81
2022-11-29T20:32:01.977Z,-0.78
2022-11-29T20:34:29.866Z,-0.79
2022-11-29T20:36:57.314Z,-0.82
2022-11-29T20:39:25.748Z,-0.84
2022-11-29T20:41:53.125Z,-0.85
2022-11-29T20:44:20.540Z,-0.79
2022-11-29T20:46:48.176Z,-0.76
2022-11-29T20:49:15.599Z,-0.74
2022-11-29T20:51:43.019Z,-0.75
2022-11-29T20:54:10.829Z,-0.79
2022-11-29T20:56:38.313Z,-0.81
2022-11-29T20:59:05.718Z,-0.79
2022-11-29T21:01:33.145Z,-0.77
2022-11-29T21:04:00.598Z,-0.76
2022-11-29T21:06:28.040Z,-0.78
2022-11-29T21:08:55.406Z,-0.81
2022-11-29T21:11:22.813Z,-0.84
2022-11-29T21:13:50.246Z,-0.84
2022-11-29T21:16:17.645Z,-0.80
2022-11-29T21:18:45.137Z,-0.78
2022-11-29T21:21:12.528Z,-0.81
2022-11-29T21:23:40.193Z,-0.85
2022-11-29T21:26:07.822Z,-0.89
2022-11-29T21:28:35.678Z,-0.88
2022-11-29T21:31:04.183Z,-0.87
2022-11-29T21:33:33.532Z,-0.85
2022-11-29T21:36:00.913Z,-0.85
2022-11-29T21:38:28.280Z,-0.88
2022-11-29T21:40:55.651Z,-0.91
2022-11-29T21:43:43.677Z,-0.92
2022-11-29T21:46:10.447Z,-0.89
2022-11-29T21:48:38.012Z,-0.88
2022-11-29T21:51:05.518Z,-0.86
2022-11-29T21:53:33.015Z,-0.87
2022-11-29T21:56:00.396Z,-0.88
2022-11-29T21:58:27.797Z,-0.90
2022-11-29T22:00:55.160Z,-0.92
2022-11-29T22:03:22.564Z,-0.94
2022-11-29T22:05:49.993Z,-0.93
2022-11-29T22:08:17.395Z,-0.90
2022-11-29T22:10:44.801Z,-0.89
2022-11-29T22:13:12.495Z,-0.89
2022-11-29T22:15:40.066Z,-0.89
2022-11-29T22:18:07.462Z,-0.91
2022-11-29T22:20:35.016Z,-0.94
2022-11-29T22:23:02.523Z,-0.94
2022-11-29T22:25:30.064Z,-0.94
2022-11-29T22:27:57.602Z,-0.94
2022-11-29T22:30:25.536Z,-0.94
2022-11-29T22:32:53.064Z,-0.97
2022-11-29T22:35:20.679Z,-1.00
2022-11-29T22:37:48.314Z,-1.02
2022-11-29T22:40:15.754Z,-0.98
2022-11-29T22:42:43.318Z,-0.97
2022-11-29T22:45:10.834Z,-0.98
2022-11-29T22:47:38.220Z,-1.00
2022-11-29T22:50:05.880Z,-1.03
2022-11-29T22:52:33.549Z,-1.05
2022-11-29T22:55:04.736Z,-1.06
2022-11-29T22:57:32.742Z,-1.05
2022-11-29T23:00:00.120Z,-0.98
2022-11-29T23:02:27.655Z,-0.95
2022-11-29T23:04:55.158Z,-0.91
2022-11-29T23:07:22.549Z,-0.90
2022-11-29T23:09:50.236Z,-0.90
2022-11-29T23:12:17.864Z,-0.88
2022-11-29T23:14:45.520Z,-0.82
2022-11-29T23:17:13.387Z,-0.81
2022-11-29T23:19:41.093Z,-0.84
2022-11-29T23:22:08.617Z,-0.88
2022-11-29T23:24:36.011Z,-0.93
2022-11-29T23:27:03.352Z,-0.96
2022-11-29T23:29:30.713Z,-0.95
2022-11-29T23:31:58.118Z,-0.93
2022-11-29T23:34:25.509Z,-0.96
2022-11-29T23:36:53.371Z,-1.00
2022-11-29T23:39:20.904Z,-1.02
2022-11-29T23:41:48.313Z,-1.00
2022-11-29T23:44:15.913Z,-0.98
2022-11-29T23:46:43.429Z,-0.96
2022-11-29T23:49:11.036Z,-0.96
2022-11-29T23:51:38.365Z,-0.95
2022-11-29T23:54:05.765Z,-0.94
2022-11-29T23:56:33.438Z,-0.93
2022-11-29T23:59:00.899Z,-0.88
